sensor_id;sensor_type;location;lat;lon;timestamp;temperature;humidity
52044;DHT22;38053;53.100;6.078;2023-02-26T00:01:56;1.80;99.90
52044;DHT22;38053;53.100;6.078;2023-02-26T00:04:27;1.90;99.90
52044;DHT22;38053;53.100;6.078;2023-02-26T00:06:53;1.80;99.90
52044;DHT22;38053;53.100;6.078;2023-02-26T00:09:20;1.80;99.90
52044;DHT22;38053;53.100;6.078;2023-02-26T00:11:47;1.70;99.90
52044;DHT22;38053;53.100;6.078;2023-02-26T00:14:16;1.70;99.90
52044;DHT22;38053;53.100;6.078;2023-02-26T00:19:30;1.60;99.90
52044;DHT22;38053;53.100;6.078;2023-02-26T00:21:56;1.60;99.90
52044;DHT22;38053;53.100;6.078;2023-02-26T00:24:22;1.50;99.90
52044;DHT22;38053;53.100;6.078;2023-02-26T00:26:48;1.50;99.90
52044;DHT22;38053;53.100;6.078;2023-02-26T00:29:13;1.50;99.90
52044;DHT22;38053;53.100;6.078;2023-02-26T00:31:39;1.50;99.90
52044;DHT22;38053;53.100;6.078;2023-02-26T00:34:05;1.50;99.90
52044;DHT22;38053;53.100;6.078;2023-02-26T00:42:03;1.40;99.90
52044;DHT22;38053;53.100;6.078;2023-02-26T00:44:29;1.40;99.90
52044;DHT22;38053;53.100;6.078;2023-02-26T00:47:14;1.40;99.90
52044;DHT22;38053;53.100;6.078;2023-02-26T00:55:01;1.40;99.90
52044;DHT22;38053;53.100;6.078;2023-02-26T00:57:28;1.40;99.90
52044;DHT22;38053;53.100;6.078;2023-02-26T00:59:54;1.40;99.90
52044;DHT22;38053;53.100;6.078;2023-02-26T01:02:21;1.40;99.90
52044;DHT22;38053;53.100;6.078;2023-02-26T01:04:48;1.30;99.90
52044;DHT22;38053;53.100;6.078;2023-02-26T01:07:14;1.30;99.90
52044;DHT22;38053;53.100;6.078;2023-02-26T01:09:43;1.30;99.90
52044;DHT22;38053;53.100;6.078;2023-02-26T01:12:10;1.30;99.90
52044;DHT22;38053;53.100;6.078;2023-02-26T01:14:38;1.30;99.90
52044;DHT22;38053;53.100;6.078;2023-02-26T01:19:49;1.30;99.90
52044;DHT22;38053;53.100;6.078;2023-02-26T01:25:08;1.30;99.90
52044;DHT22;38053;53.100;6.078;2023-02-26T01:27:34;1.30;99.90
52044;DHT22;38053;53.100;6.078;2023-02-26T01:30:00;1.30;99.90
52044;DHT22;38053;53.100;6.078;2023-02-26T01:35:37;1.30;99.90
52044;DHT22;38053;53.100;6.078;2023-02-26T01:38:19;1.20;99.90
52044;DHT22;38053;53.100;6.078;2023-02-26T01:44:08;1.20;99.90
52044;DHT22;38053;53.100;6.078;2023-02-26T01:49:42;1.10;99.90
52044;DHT22;38053;53.100;6.078;2023-02-26T01:54:56;1.10;99.90
52044;DHT22;38053;53.100;6.078;2023-02-26T01:57:23;1.10;99.90
52044;DHT22;38053;53.100;6.078;2023-02-26T01:59:51;1.10;99.90
52044;DHT22;38053;53.100;6.078;2023-02-26T02:02:21;1.10;99.90
52044;DHT22;38053;53.100;6.078;2023-02-26T02:04:47;1.00;99.90
52044;DHT22;38053;53.100;6.078;2023-02-26T02:07:14;1.00;99.90
52044;DHT22;38053;53.100;6.078;2023-02-26T02:09:41;1.00;99.90
52044;DHT22;38053;53.100;6.078;2023-02-26T02:12:25;0.90;99.90
52044;DHT22;38053;53.100;6.078;2023-02-26T02:24:08;1.00;99.90
52044;DHT22;38053;53.100;6.078;2023-02-26T02:34:47;1.20;99.90
52044;DHT22;38053;53.100;6.078;2023-02-26T02:37:29;1.10;99.90
52044;DHT22;38053;53.100;6.078;2023-02-26T02:45:46;1.00;99.90
52044;DHT22;38053;53.100;6.078;2023-02-26T02:48:30;1.00;99.90
52044;DHT22;38053;53.100;6.078;2023-02-26T02:51:11;0.90;99.90
52044;DHT22;38053;53.100;6.078;2023-02-26T02:53:52;0.90;99.90
52044;DHT22;38053;53.100;6.078;2023-02-26T02:56:28;0.80;99.90
52044;DHT22;38053;53.100;6.078;2023-02-26T02:59:09;0.80;99.90
52044;DHT22;38053;53.100;6.078;2023-02-26T03:01:39;0.80;99.90
52044;DHT22;38053;53.100;6.078;2023-02-26T03:04:11;0.80;99.90
52044;DHT22;38053;53.100;6.078;2023-02-26T03:06:38;0.80;99.90
52044;DHT22;38053;53.100;6.078;2023-02-26T03:09:05;0.80;99.90
52044;DHT22;38053;53.100;6.078;2023-02-26T03:11:32;0.70;99.90
52044;DHT22;38053;53.100;6.078;2023-02-26T03:13:58;0.70;99.90
52044;DHT22;38053;53.100;6.078;2023-02-26T03:22:16;0.60;99.90
52044;DHT22;38053;53.100;6.078;2023-02-26T03:24:46;0.50;99.90
52044;DHT22;38053;53.100;6.078;2023-02-26T03:27:33;0.50;99.90
52044;DHT22;38053;53.100;6.078;2023-02-26T03:30:25;0.60;99.90
52044;DHT22;38053;53.100;6.078;2023-02-26T03:38:15;0.60;99.90
52044;DHT22;38053;53.100;6.078;2023-02-26T03:40:56;0.50;99.90
52044;DHT22;38053;53.100;6.078;2023-02-26T03:43:53;0.60;99.90
52044;DHT22;38053;53.100;6.078;2023-02-26T03:46:26;0.60;99.90
52044;DHT22;38053;53.100;6.078;2023-02-26T03:48:56;0.70;99.90
52044;DHT22;38053;53.100;6.078;2023-02-26T03:51:25;0.70;99.90
52044;DHT22;38053;53.100;6.078;2023-02-26T03:54:09;0.80;99.90
52044;DHT22;38053;53.100;6.078;2023-02-26T03:56:43;0.80;99.90
52044;DHT22;38053;53.100;6.078;2023-02-26T03:59:10;0.80;99.90
52044;DHT22;38053;53.100;6.078;2023-02-26T04:07:12;1.00;99.90
52044;DHT22;38053;53.100;6.078;2023-02-26T04:09:46;1.00;99.90
52044;DHT22;38053;53.100;6.078;2023-02-26T04:12:12;0.90;99.90
52044;DHT22;38053;53.100;6.078;2023-02-26T04:14:38;0.90;99.90
52044;DHT22;38053;53.100;6.078;2023-02-26T04:17:04;0.90;99.90
52044;DHT22;38053;53.100;6.078;2023-02-26T04:19:30;0.90;99.90
52044;DHT22;38053;53.100;6.078;2023-02-26T04:21:56;0.90;99.90
52044;DHT22;38053;53.100;6.078;2023-02-26T04:24:23;0.90;99.90
52044;DHT22;38053;53.100;6.078;2023-02-26T04:26:49;0.90;99.90
52044;DHT22;38053;53.100;6.078;2023-02-26T04:29:20;0.80;99.90
52044;DHT22;38053;53.100;6.078;2023-02-26T04:31:46;0.80;99.90
52044;DHT22;38053;53.100;6.078;2023-02-26T04:34:12;0.80;99.90
52044;DHT22;38053;53.100;6.078;2023-02-26T04:36:38;0.80;99.90
52044;DHT22;38053;53.100;6.078;2023-02-26T04:39:04;0.70;99.90
52044;DHT22;38053;53.100;6.078;2023-02-26T04:41:29;0.70;99.90
52044;DHT22;38053;53.100;6.078;2023-02-26T04:43:55;0.60;99.90
52044;DHT22;38053;53.100;6.078;2023-02-26T04:46:21;0.60;99.90
52044;DHT22;38053;53.100;6.078;2023-02-26T04:48:47;0.60;99.90
52044;DHT22;38053;53.100;6.078;2023-02-26T04:51:13;0.70;99.90
52044;DHT22;38053;53.100;6.078;2023-02-26T04:53:40;0.60;99.90
52044;DHT22;38053;53.100;6.078;2023-02-26T04:56:05;0.60;99.90
52044;DHT22;38053;53.100;6.078;2023-02-26T04:58:34;0.60;99.90
52044;DHT22;38053;53.100;6.078;2023-02-26T05:00:59;0.60;99.90
52044;DHT22;38053;53.100;6.078;2023-02-26T05:03:28;0.60;99.90
52044;DHT22;38053;53.100;6.078;2023-02-26T05:05:54;0.70;99.90
52044;DHT22;38053;53.100;6.078;2023-02-26T05:08:20;0.60;99.90
52044;DHT22;38053;53.100;6.078;2023-02-26T05:10:46;0.60;99.90
52044;DHT22;38053;53.100;6.078;2023-02-26T05:13:12;0.60;99.90
52044;DHT22;38053;53.100;6.078;2023-02-26T05:15:37;0.50;99.90
52044;DHT22;38053;53.100;6.078;2023-02-26T05:18:06;0.50;99.90
52044;DHT22;38053;53.100;6.078;2023-02-26T05:20:32;0.50;99.90
52044;DHT22;38053;53.100;6.078;2023-02-26T05:22:58;0.40;99.90
52044;DHT22;38053;53.100;6.078;2023-02-26T05:25:23;0.40;99.90
52044;DHT22;38053;53.100;6.078;2023-02-26T05:27:50;0.40;99.90
52044;DHT22;38053;53.100;6.078;2023-02-26T05:30:16;0.30;99.90
52044;DHT22;38053;53.100;6.078;2023-02-26T05:32:42;0.30;99.90
52044;DHT22;38053;53.100;6.078;2023-02-26T05:35:09;0.30;99.90
52044;DHT22;38053;53.100;6.078;2023-02-26T05:37:35;0.30;99.90
52044;DHT22;38053;53.100;6.078;2023-02-26T05:40:01;0.30;99.90
52044;DHT22;38053;53.100;6.078;2023-02-26T05:42:30;0.30;99.90
52044;DHT22;38053;53.100;6.078;2023-02-26T05:44:56;0.30;99.90
52044;DHT22;38053;53.100;6.078;2023-02-26T05:47:22;0.30;99.90
52044;DHT22;38053;53.100;6.078;2023-02-26T05:49:48;0.30;99.90
52044;DHT22;38053;53.100;6.078;2023-02-26T05:52:15;0.20;99.90
52044;DHT22;38053;53.100;6.078;2023-02-26T05:54:40;0.20;99.90
52044;DHT22;38053;53.100;6.078;2023-02-26T05:57:06;0.10;99.90
52044;DHT22;38053;53.100;6.078;2023-02-26T05:59:32;0.10;99.90
52044;DHT22;38053;53.100;6.078;2023-02-26T06:01:58;0.00;99.90
52044;DHT22;38053;53.100;6.078;2023-02-26T06:04:23;0.00;99.90
52044;DHT22;38053;53.100;6.078;2023-02-26T06:06:49;0.00;99.90
52044;DHT22;38053;53.100;6.078;2023-02-26T06:09:15;0.00;99.90
52044;DHT22;38053;53.100;6.078;2023-02-26T06:11:41;0.00;99.90
52044;DHT22;38053;53.100;6.078;2023-02-26T06:14:07;0.00;99.90
52044;DHT22;38053;53.100;6.078;2023-02-26T06:16:32;0.00;99.90
52044;DHT22;38053;53.100;6.078;2023-02-26T06:19:00;0.00;99.90
52044;DHT22;38053;53.100;6.078;2023-02-26T06:21:26;-0.10;99.90
52044;DHT22;38053;53.100;6.078;2023-02-26T06:23:53;-0.10;99.90
52044;DHT22;38053;53.100;6.078;2023-02-26T06:26:19;-0.10;99.90
52044;DHT22;38053;53.100;6.078;2023-02-26T06:28:45;-0.10;99.90
52044;DHT22;38053;53.100;6.078;2023-02-26T06:31:10;-0.10;99.90
52044;DHT22;38053;53.100;6.078;2023-02-26T06:33:36;-0.20;99.90
52044;DHT22;38053;53.100;6.078;2023-02-26T06:36:02;-0.20;99.90
52044;DHT22;38053;53.100;6.078;2023-02-26T06:38:28;-0.30;99.90
52044;DHT22;38053;53.100;6.078;2023-02-26T06:40:54;-0.30;99.90
52044;DHT22;38053;53.100;6.078;2023-02-26T06:43:21;-0.30;99.90
52044;DHT22;38053;53.100;6.078;2023-02-26T06:45:47;-0.30;99.90
52044;DHT22;38053;53.100;6.078;2023-02-26T06:48:13;-0.30;99.90
52044;DHT22;38053;53.100;6.078;2023-02-26T06:50:39;-0.30;99.90
52044;DHT22;38053;53.100;6.078;2023-02-26T06:53:06;-0.30;99.90
52044;DHT22;38053;53.100;6.078;2023-02-26T06:55:32;-0.30;99.90
52044;DHT22;38053;53.100;6.078;2023-02-26T06:57:58;-0.30;99.90
52044;DHT22;38053;53.100;6.078;2023-02-26T07:00:25;-0.20;99.90
52044;DHT22;38053;53.100;6.078;2023-02-26T07:02:51;-0.20;99.90
52044;DHT22;38053;53.100;6.078;2023-02-26T07:05:17;-0.20;99.90
52044;DHT22;38053;53.100;6.078;2023-02-26T07:07:43;-0.20;99.90
52044;DHT22;38053;53.100;6.078;2023-02-26T07:10:10;-0.10;99.90
52044;DHT22;38053;53.100;6.078;2023-02-26T07:12:39;-0.10;99.90
52044;DHT22;38053;53.100;6.078;2023-02-26T07:15:06;0.00;99.90
52044;DHT22;38053;53.100;6.078;2023-02-26T07:17:32;0.00;99.90
52044;DHT22;38053;53.100;6.078;2023-02-26T07:19:58;0.00;99.90
52044;DHT22;38053;53.100;6.078;2023-02-26T07:22:25;0.00;99.90
52044;DHT22;38053;53.100;6.078;2023-02-26T07:24:50;-0.10;99.90
52044;DHT22;38053;53.100;6.078;2023-02-26T07:27:16;-0.10;99.90
52044;DHT22;38053;53.100;6.078;2023-02-26T07:29:44;-0.10;99.90
52044;DHT22;38053;53.100;6.078;2023-02-26T07:32:10;-0.10;99.90
52044;DHT22;38053;53.100;6.078;2023-02-26T07:34:36;-0.10;99.90
52044;DHT22;38053;53.100;6.078;2023-02-26T07:37:03;-0.10;99.90
52044;DHT22;38053;53.100;6.078;2023-02-26T07:39:30;-0.10;99.90
52044;DHT22;38053;53.100;6.078;2023-02-26T07:41:55;-0.10;99.90
52044;DHT22;38053;53.100;6.078;2023-02-26T07:44:21;-0.10;99.90
52044;DHT22;38053;53.100;6.078;2023-02-26T07:46:47;-0.10;99.90
52044;DHT22;38053;53.100;6.078;2023-02-26T07:49:12;0.00;99.90
52044;DHT22;38053;53.100;6.078;2023-02-26T07:51:39;0.00;99.90
52044;DHT22;38053;53.100;6.078;2023-02-26T07:54:13;0.00;99.90
52044;DHT22;38053;53.100;6.078;2023-02-26T07:56:39;0.10;99.90
52044;DHT22;38053;53.100;6.078;2023-02-26T07:59:08;0.10;99.90
52044;DHT22;38053;53.100;6.078;2023-02-26T08:01:37;0.20;99.90
52044;DHT22;38053;53.100;6.078;2023-02-26T08:04:03;0.30;99.90
52044;DHT22;38053;53.100;6.078;2023-02-26T08:06:29;0.30;99.90
52044;DHT22;38053;53.100;6.078;2023-02-26T08:08:55;0.40;99.90
52044;DHT22;38053;53.100;6.078;2023-02-26T08:11:22;0.50;99.90
52044;DHT22;38053;53.100;6.078;2023-02-26T08:13:47;0.60;99.90
52044;DHT22;38053;53.100;6.078;2023-02-26T08:16:13;0.70;99.90
52044;DHT22;38053;53.100;6.078;2023-02-26T08:18:48;0.80;99.90
52044;DHT22;38053;53.100;6.078;2023-02-26T08:21:15;0.90;99.90
52044;DHT22;38053;53.100;6.078;2023-02-26T08:23:40;1.00;99.90
52044;DHT22;38053;53.100;6.078;2023-02-26T08:26:08;1.10;99.90
52044;DHT22;38053;53.100;6.078;2023-02-26T08:28:35;1.20;99.90
52044;DHT22;38053;53.100;6.078;2023-02-26T08:31:04;1.30;99.90
52044;DHT22;38053;53.100;6.078;2023-02-26T08:33:31;1.30;99.90
52044;DHT22;38053;53.100;6.078;2023-02-26T08:35:57;1.40;99.90
52044;DHT22;38053;53.100;6.078;2023-02-26T08:38:24;1.50;99.90
52044;DHT22;38053;53.100;6.078;2023-02-26T08:40:50;1.60;99.90
52044;DHT22;38053;53.100;6.078;2023-02-26T08:43:18;1.70;99.90
52044;DHT22;38053;53.100;6.078;2023-02-26T08:45:44;1.80;99.90
52044;DHT22;38053;53.100;6.078;2023-02-26T08:48:10;1.90;99.90
52044;DHT22;38053;53.100;6.078;2023-02-26T08:50:36;2.00;99.90
52044;DHT22;38053;53.100;6.078;2023-02-26T08:53:03;2.20;99.90
52044;DHT22;38053;53.100;6.078;2023-02-26T08:55:29;2.30;99.90
52044;DHT22;38053;53.100;6.078;2023-02-26T08:57:58;2.30;99.90
52044;DHT22;38053;53.100;6.078;2023-02-26T09:00:24;2.50;99.90
52044;DHT22;38053;53.100;6.078;2023-02-26T09:02:49;2.60;99.90
52044;DHT22;38053;53.100;6.078;2023-02-26T09:05:15;2.80;99.90
52044;DHT22;38053;53.100;6.078;2023-02-26T09:07:44;2.90;99.90
52044;DHT22;38053;53.100;6.078;2023-02-26T09:10:12;3.00;99.90
52044;DHT22;38053;53.100;6.078;2023-02-26T09:12:38;3.10;99.90
52044;DHT22;38053;53.100;6.078;2023-02-26T09:15:06;3.20;99.90
52044;DHT22;38053;53.100;6.078;2023-02-26T09:17:32;3.30;99.90
52044;DHT22;38053;53.100;6.078;2023-02-26T09:19:58;3.50;99.90
52044;DHT22;38053;53.100;6.078;2023-02-26T09:22:24;3.50;99.90
52044;DHT22;38053;53.100;6.078;2023-02-26T09:24:50;3.60;99.90
52044;DHT22;38053;53.100;6.078;2023-02-26T09:27:17;3.70;99.90
52044;DHT22;38053;53.100;6.078;2023-02-26T09:29:43;3.80;99.90
52044;DHT22;38053;53.100;6.078;2023-02-26T09:32:08;3.90;99.90
52044;DHT22;38053;53.100;6.078;2023-02-26T09:34:37;4.00;99.90
52044;DHT22;38053;53.100;6.078;2023-02-26T09:37:06;4.10;99.90
52044;DHT22;38053;53.100;6.078;2023-02-26T09:39:36;4.20;99.90
52044;DHT22;38053;53.100;6.078;2023-02-26T09:44:36;4.20;99.90
52044;DHT22;38053;53.100;6.078;2023-02-26T09:47:14;4.30;99.90
52044;DHT22;38053;53.100;6.078;2023-02-26T09:52:26;4.50;99.90
52044;DHT22;38053;53.100;6.078;2023-02-26T09:57:55;4.60;99.90
52044;DHT22;38053;53.100;6.078;2023-02-26T10:00:43;4.70;99.90
52044;DHT22;38053;53.100;6.078;2023-02-26T10:03:50;4.70;99.90
52044;DHT22;38053;53.100;6.078;2023-02-26T10:06:29;4.80;99.90
52044;DHT22;38053;53.100;6.078;2023-02-26T10:12:14;4.90;99.90
52044;DHT22;38053;53.100;6.078;2023-02-26T10:18:10;5.10;99.90
52044;DHT22;38053;53.100;6.078;2023-02-26T10:23:36;5.40;99.90
52044;DHT22;38053;53.100;6.078;2023-02-26T10:43:20;5.60;99.90
52044;DHT22;38053;53.100;6.078;2023-02-26T10:51:55;5.00;99.90
52044;DHT22;38053;53.100;6.078;2023-02-26T10:54:35;4.90;99.90
52044;DHT22;38053;53.100;6.078;2023-02-26T10:57:03;4.80;99.90
52044;DHT22;38053;53.100;6.078;2023-02-26T10:59:29;4.70;99.90
52044;DHT22;38053;53.100;6.078;2023-02-26T11:01:58;4.70;99.90
52044;DHT22;38053;53.100;6.078;2023-02-26T11:04:25;4.70;99.90
52044;DHT22;38053;53.100;6.078;2023-02-26T11:09:37;4.90;99.90
52044;DHT22;38053;53.100;6.078;2023-02-26T11:12:16;4.90;99.90
52044;DHT22;38053;53.100;6.078;2023-02-26T11:14:47;5.00;99.90
52044;DHT22;38053;53.100;6.078;2023-02-26T11:17:18;5.40;99.90
52044;DHT22;38053;53.100;6.078;2023-02-26T11:20:29;5.80;99.90
52044;DHT22;38053;53.100;6.078;2023-02-26T11:22:57;6.00;99.90
52044;DHT22;38053;53.100;6.078;2023-02-26T11:25:27;6.30;99.90
52044;DHT22;38053;53.100;6.078;2023-02-26T11:28:01;6.30;99.90
52044;DHT22;38053;53.100;6.078;2023-02-26T11:30:31;6.40;99.90
52044;DHT22;38053;53.100;6.078;2023-02-26T11:32:58;6.40;99.90
52044;DHT22;38053;53.100;6.078;2023-02-26T11:35:32;6.40;99.90
52044;DHT22;38053;53.100;6.078;2023-02-26T11:38:01;6.10;99.90
52044;DHT22;38053;53.100;6.078;2023-02-26T11:40:40;5.80;99.90
52044;DHT22;38053;53.100;6.078;2023-02-26T11:43:11;5.60;99.90
52044;DHT22;38053;53.100;6.078;2023-02-26T11:45:42;5.30;99.90
52044;DHT22;38053;53.100;6.078;2023-02-26T11:48:25;5.30;99.90
52044;DHT22;38053;53.100;6.078;2023-02-26T11:50:55;5.30;99.90
52044;DHT22;38053;53.100;6.078;2023-02-26T11:53:42;5.40;99.90
52044;DHT22;38053;53.100;6.078;2023-02-26T11:56:13;5.40;99.90
52044;DHT22;38053;53.100;6.078;2023-02-26T11:58:42;5.60;99.90
52044;DHT22;38053;53.100;6.078;2023-02-26T12:01:13;5.70;99.90
52044;DHT22;38053;53.100;6.078;2023-02-26T12:03:47;5.80;99.90
52044;DHT22;38053;53.100;6.078;2023-02-26T12:06:17;5.80;99.90
52044;DHT22;38053;53.100;6.078;2023-02-26T12:08:44;6.00;99.90
52044;DHT22;38053;53.100;6.078;2023-02-26T12:36:08;9.90;95.60
52044;DHT22;38053;53.100;6.078;2023-02-26T12:39:07;9.10;96.20
52044;DHT22;38053;53.100;6.078;2023-02-26T12:50:30;8.00;99.90
52044;DHT22;38053;53.100;6.078;2023-02-26T13:07:21;7.20;99.90
52044;DHT22;38053;53.100;6.078;2023-02-26T13:10:14;7.30;99.90
52044;DHT22;38053;53.100;6.078;2023-02-26T13:18:14;8.80;98.20
52044;DHT22;38053;53.100;6.078;2023-02-26T13:20:51;8.70;97.50
52044;DHT22;38053;53.100;6.078;2023-02-26T13:23:23;8.50;97.50
52044;DHT22;38053;53.100;6.078;2023-02-26T13:25:56;8.40;97.90
52044;DHT22;38053;53.100;6.078;2023-02-26T13:28:46;8.40;97.90
52044;DHT22;38053;53.100;6.078;2023-02-26T13:34:00;8.40;98.00
52044;DHT22;38053;53.100;6.078;2023-02-26T13:36:29;8.10;98.20
52044;DHT22;38053;53.100;6.078;2023-02-26T13:48:47;7.30;99.90
52044;DHT22;38053;53.100;6.078;2023-02-26T13:51:12;7.10;99.90
52044;DHT22;38053;53.100;6.078;2023-02-26T14:02:01;7.70;99.70
52044;DHT22;38053;53.100;6.078;2023-02-26T14:04:46;8.30;99.90
52044;DHT22;38053;53.100;6.078;2023-02-26T14:07:15;8.60;99.60
52044;DHT22;38053;53.100;6.078;2023-02-26T14:09:59;8.40;99.00
52044;DHT22;38053;53.100;6.078;2023-02-26T14:12:41;7.60;98.80
52044;DHT22;38053;53.100;6.078;2023-02-26T14:15:19;7.00;99.50
52044;DHT22;38053;53.100;6.078;2023-02-26T14:17:49;6.70;99.90
52044;DHT22;38053;53.100;6.078;2023-02-26T14:31:12;6.90;99.90
52044;DHT22;38053;53.100;6.078;2023-02-26T14:33:46;6.80;99.90
52044;DHT22;38053;53.100;6.078;2023-02-26T14:36:49;6.60;99.90
52044;DHT22;38053;53.100;6.078;2023-02-26T14:42:09;6.80;99.90
52044;DHT22;38053;53.100;6.078;2023-02-26T14:44:43;6.60;99.90
52044;DHT22;38053;53.100;6.078;2023-02-26T14:47:10;6.40;99.90
52044;DHT22;38053;53.100;6.078;2023-02-26T14:49:41;6.20;99.90
52044;DHT22;38053;53.100;6.078;2023-02-26T14:52:27;6.50;99.90
52044;DHT22;38053;53.100;6.078;2023-02-26T14:55:19;7.20;99.90
52044;DHT22;38053;53.100;6.078;2023-02-26T14:57:52;8.10;99.00
52044;DHT22;38053;53.100;6.078;2023-02-26T15:11:12;8.60;97.40
52044;DHT22;38053;53.100;6.078;2023-02-26T15:16:47;9.30;95.70
52044;DHT22;38053;53.100;6.078;2023-02-26T15:24:29;9.50;96.30
52044;DHT22;38053;53.100;6.078;2023-02-26T15:27:04;10.00;95.40
52044;DHT22;38053;53.100;6.078;2023-02-26T15:29:35;9.70;94.30
52044;DHT22;38053;53.100;6.078;2023-02-26T15:34:46;9.40;95.80
52044;DHT22;38053;53.100;6.078;2023-02-26T15:37:24;9.50;96.20
52044;DHT22;38053;53.100;6.078;2023-02-26T15:39:51;9.20;96.00
52044;DHT22;38053;53.100;6.078;2023-02-26T15:42:24;9.30;96.10
52044;DHT22;38053;53.100;6.078;2023-02-26T15:44:53;8.80;95.70
52044;DHT22;38053;53.100;6.078;2023-02-26T15:47:20;8.70;96.20
52044;DHT22;38053;53.100;6.078;2023-02-26T15:49:47;8.60;96.20
52044;DHT22;38053;53.100;6.078;2023-02-26T15:52:22;8.10;97.20
52044;DHT22;38053;53.100;6.078;2023-02-26T15:54:56;7.40;98.70
52044;DHT22;38053;53.100;6.078;2023-02-26T15:57:25;7.20;99.70
52044;DHT22;38053;53.100;6.078;2023-02-26T15:59:54;6.80;99.90
52044;DHT22;38053;53.100;6.078;2023-02-26T16:02:30;6.60;99.90
52044;DHT22;38053;53.100;6.078;2023-02-26T16:04:56;6.40;99.90
52044;DHT22;38053;53.100;6.078;2023-02-26T16:07:26;6.40;99.90
52044;DHT22;38053;53.100;6.078;2023-02-26T16:09:54;6.30;99.90
52044;DHT22;38053;53.100;6.078;2023-02-26T16:12:35;6.20;99.90
52044;DHT22;38053;53.100;6.078;2023-02-26T16:15:19;5.90;99.90
52044;DHT22;38053;53.100;6.078;2023-02-26T16:18:14;5.70;99.90
52044;DHT22;38053;53.100;6.078;2023-02-26T16:20:44;5.40;99.90
52044;DHT22;38053;53.100;6.078;2023-02-26T16:23:15;5.30;99.90
52044;DHT22;38053;53.100;6.078;2023-02-26T16:26:03;5.20;99.90
52044;DHT22;38053;53.100;6.078;2023-02-26T16:28:40;5.20;99.90
52044;DHT22;38053;53.100;6.078;2023-02-26T16:31:19;5.10;99.90
52044;DHT22;38053;53.100;6.078;2023-02-26T16:34:02;5.00;99.90
52044;DHT22;38053;53.100;6.078;2023-02-26T16:36:42;4.90;99.90
52044;DHT22;38053;53.100;6.078;2023-02-26T16:39:19;4.90;99.90
52044;DHT22;38053;53.100;6.078;2023-02-26T16:42:01;4.90;99.90
52044;DHT22;38053;53.100;6.078;2023-02-26T16:44:38;4.80;99.90
52044;DHT22;38053;53.100;6.078;2023-02-26T16:47:05;4.80;99.90
52044;DHT22;38053;53.100;6.078;2023-02-26T16:49:32;4.70;99.90
52044;DHT22;38053;53.100;6.078;2023-02-26T16:52:04;4.60;99.90
52044;DHT22;38053;53.100;6.078;2023-02-26T16:54:39;4.50;99.90
52044;DHT22;38053;53.100;6.078;2023-02-26T16:57:18;4.50;99.90
52044;DHT22;38053;53.100;6.078;2023-02-26T17:00:04;4.40;99.90
52044;DHT22;38053;53.100;6.078;2023-02-26T17:02:34;4.30;99.90
52044;DHT22;38053;53.100;6.078;2023-02-26T17:05:25;4.20;99.90
52044;DHT22;38053;53.100;6.078;2023-02-26T17:08:17;4.20;99.90
52044;DHT22;38053;53.100;6.078;2023-02-26T17:11:08;4.20;99.90
52044;DHT22;38053;53.100;6.078;2023-02-26T17:13:41;4.10;99.90
52044;DHT22;38053;53.100;6.078;2023-02-26T17:16:11;4.00;99.90
52044;DHT22;38053;53.100;6.078;2023-02-26T17:18:40;3.90;99.90
52044;DHT22;38053;53.100;6.078;2023-02-26T17:21:08;3.90;99.90
52044;DHT22;38053;53.100;6.078;2023-02-26T17:23:36;3.80;99.90
52044;DHT22;38053;53.100;6.078;2023-02-26T17:26:06;3.80;99.90
52044;DHT22;38053;53.100;6.078;2023-02-26T17:28:39;3.70;99.90
52044;DHT22;38053;53.100;6.078;2023-02-26T17:31:06;3.60;99.90
52044;DHT22;38053;53.100;6.078;2023-02-26T17:33:40;3.60;99.90
52044;DHT22;38053;53.100;6.078;2023-02-26T17:36:13;3.60;99.90
52044;DHT22;38053;53.100;6.078;2023-02-26T17:38:45;3.60;99.90
52044;DHT22;38053;53.100;6.078;2023-02-26T17:41:21;3.50;99.90
52044;DHT22;38053;53.100;6.078;2023-02-26T17:43:47;3.40;99.90
52044;DHT22;38053;53.100;6.078;2023-02-26T17:46:15;3.40;99.90
52044;DHT22;38053;53.100;6.078;2023-02-26T17:48:41;3.30;99.90
52044;DHT22;38053;53.100;6.078;2023-02-26T17:51:08;3.30;99.90
52044;DHT22;38053;53.100;6.078;2023-02-26T17:53:34;3.20;99.90
52044;DHT22;38053;53.100;6.078;2023-02-26T17:56:21;3.20;99.90
52044;DHT22;38053;53.100;6.078;2023-02-26T17:58:48;3.10;99.90
52044;DHT22;38053;53.100;6.078;2023-02-26T18:01:14;3.10;99.90
52044;DHT22;38053;53.100;6.078;2023-02-26T18:03:40;3.00;99.90
52044;DHT22;38053;53.100;6.078;2023-02-26T18:06:09;3.00;99.90
52044;DHT22;38053;53.100;6.078;2023-02-26T18:08:38;2.90;99.90
52044;DHT22;38053;53.100;6.078;2023-02-26T18:11:05;2.90;99.90
52044;DHT22;38053;53.100;6.078;2023-02-26T18:13:31;2.90;99.90
52044;DHT22;38053;53.100;6.078;2023-02-26T18:16:00;2.80;99.90
52044;DHT22;38053;53.100;6.078;2023-02-26T18:18:28;2.90;99.90
52044;DHT22;38053;53.100;6.078;2023-02-26T18:20:55;2.80;99.90
52044;DHT22;38053;53.100;6.078;2023-02-26T18:23:23;2.80;99.90
52044;DHT22;38053;53.100;6.078;2023-02-26T18:25:52;2.80;99.90
52044;DHT22;38053;53.100;6.078;2023-02-26T18:28:21;2.70;99.90
52044;DHT22;38053;53.100;6.078;2023-02-26T18:30:51;2.70;99.90
52044;DHT22;38053;53.100;6.078;2023-02-26T18:33:20;2.70;99.90
52044;DHT22;38053;53.100;6.078;2023-02-26T18:35:49;2.70;99.90
52044;DHT22;38053;53.100;6.078;2023-02-26T18:38:26;2.60;99.90
52044;DHT22;38053;53.100;6.078;2023-02-26T18:40:52;2.60;99.90
52044;DHT22;38053;53.100;6.078;2023-02-26T18:43:18;2.60;99.90
52044;DHT22;38053;53.100;6.078;2023-02-26T18:45:46;2.50;99.90
52044;DHT22;38053;53.100;6.078;2023-02-26T18:48:17;2.50;99.90
52044;DHT22;38053;53.100;6.078;2023-02-26T18:50:44;2.40;99.90
52044;DHT22;38053;53.100;6.078;2023-02-26T18:53:11;2.40;99.90
52044;DHT22;38053;53.100;6.078;2023-02-26T18:55:37;2.40;99.90
52044;DHT22;38053;53.100;6.078;2023-02-26T18:58:04;2.30;99.90
52044;DHT22;38053;53.100;6.078;2023-02-26T19:00:30;2.30;99.90
52044;DHT22;38053;53.100;6.078;2023-02-26T19:02:56;2.20;99.90
52044;DHT22;38053;53.100;6.078;2023-02-26T19:05:21;2.20;99.90
52044;DHT22;38053;53.100;6.078;2023-02-26T19:07:53;2.20;99.90
52044;DHT22;38053;53.100;6.078;2023-02-26T19:10:22;2.20;99.90
52044;DHT22;38053;53.100;6.078;2023-02-26T19:12:48;2.10;99.90
52044;DHT22;38053;53.100;6.078;2023-02-26T19:15:15;2.20;99.90
52044;DHT22;38053;53.100;6.078;2023-02-26T19:17:42;2.20;99.90
52044;DHT22;38053;53.100;6.078;2023-02-26T19:20:08;2.20;99.90
52044;DHT22;38053;53.100;6.078;2023-02-26T19:22:34;2.20;99.90
52044;DHT22;38053;53.100;6.078;2023-02-26T19:25:00;2.20;99.90
52044;DHT22;38053;53.100;6.078;2023-02-26T19:27:26;2.10;99.90
52044;DHT22;38053;53.100;6.078;2023-02-26T19:29:51;2.00;99.90
52044;DHT22;38053;53.100;6.078;2023-02-26T19:32:17;2.00;99.90
52044;DHT22;38053;53.100;6.078;2023-02-26T19:34:43;2.00;99.90
52044;DHT22;38053;53.100;6.078;2023-02-26T19:37:10;2.00;99.90
52044;DHT22;38053;53.100;6.078;2023-02-26T19:39:39;2.00;99.90
52044;DHT22;38053;53.100;6.078;2023-02-26T19:42:04;2.00;99.90
52044;DHT22;38053;53.100;6.078;2023-02-26T19:44:30;2.00;99.90
52044;DHT22;38053;53.100;6.078;2023-02-26T19:46:57;2.00;99.90
52044;DHT22;38053;53.100;6.078;2023-02-26T19:49:23;2.00;99.90